Glenwood Springs, CO (81601)

10:29 AM MDT on August 29, 2015 (GMT -0600)
Elk Springs | | Change Station
CLOSE
Current Station
Personal Weather Station
Location: Glenwood Springs, CO
Elevation: 6988 ft
Nearby Weather Stations

Elev 6988 ft 39.48 °N, 107.25 °W | Updated 6 minutes ago

Clear
Clear
72.0 °F
Feels Like 77 °F
N
6.3
Wind Variable Wind from South

Today
High -- | Low -- °F
--% Chance of Precip.
Yesterday
High -- | Low -- °F
Precip. -- in
6:34 AM 7:45 PM
Full, 100% visible
Pressure 30.14 in
Visibility 10.0 miles
Clouds Clear
Heat Index 77 °F
Dew Point 48 °F
Humidity 42%
Rainfall 0.00 in
Snow Depth Not available.
UV 5 out of 12
Pollen 9.90 out of 12
Air Quality Not available.
Flu Activity Not available.
METAR KRIL 291553Z AUTO 00000KT 10SM CLR 19/08 A3030 RMK AO2 SLP205 T01890083
Pressure 30.14 in
Visibility 10.0 miles
Clouds Clear
Heat Index 77 °F
Dew Point 48 °F
Humidity 42%
Rainfall 0.00 in
Snow Depth Not available.
UV 5 out of 12
Pollen 9.90 out of 12
Air Quality Not available.
Flu Activity Not available.
METAR KRIL 291553Z AUTO 00000KT 10SM CLR 19/08 A3030 RMK AO2 SLP205 T01890083

10-Day Weather Forecast

×

Almanac

Astronomy

Aug. 29, 2015 Rise Set
Actual Time
Civil Twilight
Nautical Twilight
Astronomical Twilight
Moon
Length of Visible Light
Length of Day
Tomorrow will be .
, % of the Moon is Illuminated

Today's Extremes

State Highs State Lows

Community

WunderPhotos

Upload Photos

1,850,719 photos uploaded!

WunderBlogs® & News

Nearby

Air Quality

  Air Quality AQ Index Pollutant
Not available.

Snow Depth

Station Depth Elevation

Earthquake Activity

City Distance Mag. Time & Date
Minimum magnitude displayed is 2.5.

Coastal Water Temperatures

Place Temperature

Stations

Nearby Weather Stations

Station Location Temp. Windchill Dew Point Humidity Wind Precip. Elev Updated Type